createdAt,value
2019-03-13T00:00:48.629Z,99505.33
2019-03-13T00:03:21.588Z,99503.16
2019-03-13T00:05:52.794Z,99492.32
2019-03-13T00:08:25.171Z,99486.21
2019-03-13T00:10:56.606Z,99481.38
2019-03-13T00:13:29.060Z,99479.22
2019-03-13T00:16:00.370Z,99474.83
2019-03-13T00:18:31.669Z,99466.97
2019-03-13T00:21:02.897Z,99469.17
2019-03-13T00:23:34.152Z,99468.73
2019-03-13T00:26:05.398Z,99466.11
2019-03-13T00:28:36.635Z,99461.72
2019-03-13T00:31:07.978Z,99457.38
2019-03-13T00:33:39.284Z,99460.05
2019-03-13T00:36:10.510Z,99467.02
2019-03-13T00:38:41.760Z,99476.59
2019-03-13T00:41:13.251Z,99467.37
2019-03-13T00:43:44.632Z,99476.55
2019-03-13T00:46:15.968Z,99478.76
2019-03-13T00:48:47.271Z,99477.80
2019-03-13T00:51:18.779Z,99474.78
2019-03-13T00:53:50.126Z,99482.15
2019-03-13T00:56:21.581Z,99463.30
2019-03-13T00:58:52.907Z,99466.78
2019-03-13T01:01:41.888Z,99464.11
2019-03-13T01:04:22.205Z,99468.53
2019-03-13T01:07:02.559Z,99464.96
2019-03-13T01:09:33.882Z,99467.63
2019-03-13T01:12:05.592Z,99469.41
2019-03-13T01:14:36.898Z,99473.41
2019-03-13T01:17:09.429Z,99477.80
2019-03-13T01:19:40.613Z,99475.19
2019-03-13T01:22:11.982Z,99482.28
2019-03-13T01:24:43.273Z,99485.72
2019-03-13T01:27:14.598Z,99487.08
2019-03-13T01:29:45.912Z,99486.67
2019-03-13T01:32:38.887Z,99510.75
2019-03-13T01:35:20.221Z,99529.50
2019-03-13T01:37:51.565Z,99556.62
2019-03-13T01:40:22.875Z,99608.19
2019-03-13T01:42:54.129Z,99602.34
2019-03-13T01:45:25.435Z,99622.50
2019-03-13T01:47:56.728Z,99618.91
2019-03-13T01:50:27.909Z,99629.78
2019-03-13T01:52:59.341Z,99640.13
2019-03-13T01:55:30.527Z,99631.34
2019-03-13T01:58:01.783Z,99654.76
2019-03-13T02:00:33.120Z,99655.56
2019-03-13T02:03:04.527Z,99653.30
2019-03-13T02:05:36.842Z,99661.22
2019-03-13T02:08:08.151Z,99676.11
2019-03-13T02:10:40.371Z,99701.61
2019-03-13T02:13:11.681Z,99717.23
2019-03-13T02:15:42.904Z,99723.28
2019-03-13T02:18:14.169Z,99721.08
2019-03-13T02:20:45.462Z,99724.77
2019-03-13T02:23:16.743Z,99736.41
2019-03-13T02:25:47.966Z,99748.91
2019-03-13T02:28:19.234Z,99737.34
2019-03-13T02:30:50.488Z,99742.44
2019-03-13T02:33:21.733Z,99748.80
2019-03-13T02:35:52.999Z,99749.41
2019-03-13T02:38:24.245Z,99754.36
2019-03-13T02:40:55.698Z,99750.60
2019-03-13T02:43:26.982Z,99760.45
2019-03-13T02:45:58.253Z,99768.62
2019-03-13T02:48:29.678Z,99773.67
2019-03-13T02:51:00.895Z,99782.20
2019-03-13T02:53:32.206Z,99786.38
2019-03-13T02:56:03.462Z,99793.50
2019-03-13T02:58:34.910Z,99805.84
2019-03-13T03:01:16.471Z,99809.18
2019-03-13T03:03:51.449Z,99818.25
2019-03-13T03:06:22.695Z,99821.38
2019-03-13T03:08:54.030Z,99835.52
2019-03-13T03:11:25.255Z,99820.00
2019-03-13T03:13:56.678Z,99819.45
2019-03-13T03:16:27.894Z,99842.28
2019-03-13T03:18:59.157Z,99843.01
2019-03-13T03:21:30.461Z,99839.93
2019-03-13T03:24:01.709Z,99847.02
2019-03-13T03:26:32.932Z,99836.66
2019-03-13T03:29:04.192Z,99842.04
2019-03-13T03:31:36.546Z,99833.08
2019-03-13T03:34:07.967Z,99850.28
2019-03-13T03:36:39.347Z,99856.15
2019-03-13T03:39:10.678Z,99862.98
2019-03-13T03:41:42.218Z,99865.37
2019-03-13T03:44:13.508Z,99882.96
2019-03-13T03:46:44.861Z,99874.16
2019-03-13T03:49:17.161Z,99875.70
2019-03-13T03:51:48.358Z,99873.57
2019-03-13T03:54:19.705Z,99877.72
2019-03-13T03:56:50.917Z,99873.22
2019-03-13T03:59:22.203Z,99879.08
2019-03-13T04:01:53.401Z,99888.95
2019-03-13T04:04:24.699Z,99878.09
2019-03-13T04:06:55.938Z,99873.63
2019-03-13T04:09:27.355Z,99880.94
2019-03-13T04:11:58.618Z,99873.43
2019-03-13T04:14:29.849Z,99866.91
2019-03-13T04:17:01.398Z,99864.23
2019-03-13T04:19:32.729Z,99875.41
2019-03-13T04:22:03.948Z,99860.56
2019-03-13T04:24:35.199Z,99862.69
2019-03-13T04:27:06.624Z,99859.09
2019-03-13T04:29:37.954Z,99865.41
2019-03-13T04:32:09.159Z,99870.55
2019-03-13T04:34:40.589Z,99871.37
2019-03-13T04:37:11.762Z,99872.59
2019-03-13T04:39:42.992Z,99871.77
2019-03-13T04:42:14.239Z,99874.78
2019-03-13T04:44:45.457Z,99875.60
2019-03-13T04:47:16.909Z,99867.39
2019-03-13T04:49:48.134Z,99871.18
2019-03-13T04:52:19.399Z,99864.27
2019-03-13T04:54:50.847Z,99867.86
2019-03-13T04:57:22.095Z,99857.44
2019-03-13T04:59:54.356Z,99867.07
2019-03-13T05:02:25.725Z,99870.63
2019-03-13T05:04:57.187Z,99876.35
2019-03-13T05:07:28.409Z,99882.04
2019-03-13T05:09:59.730Z,99882.63
2019-03-13T05:12:31.206Z,99881.73
2019-03-13T05:15:02.510Z,99883.42
2019-03-13T05:17:33.764Z,99890.38
2019-03-13T05:20:05.797Z,99899.50
2019-03-13T05:22:36.999Z,99913.83
2019-03-13T05:25:08.514Z,99909.02
2019-03-13T05:27:39.728Z,99897.68
2019-03-13T05:30:11.185Z,99901.20
2019-03-13T05:32:42.623Z,99909.92
2019-03-13T05:35:13.844Z,99914.63
2019-03-13T05:37:45.229Z,99910.00
2019-03-13T05:40:16.519Z,99924.73
2019-03-13T05:42:47.888Z,99927.34
2019-03-13T05:45:19.235Z,99925.25
2019-03-13T05:47:50.597Z,99922.64
2019-03-13T05:50:21.927Z,99919.60
2019-03-13T05:52:53.220Z,99909.29
2019-03-13T05:55:24.512Z,99904.16
2019-03-13T05:57:55.822Z,99912.06
2019-03-13T06:00:29.006Z,99914.75
2019-03-13T06:03:00.306Z,99907.24
2019-03-13T06:05:34.736Z,99912.53
2019-03-13T06:08:06.078Z,99904.72
2019-03-13T06:10:37.737Z,99899.70
2019-03-13T06:13:09.005Z,99901.08
2019-03-13T06:15:40.499Z,99903.77
2019-03-13T06:18:11.930Z,99904.36
2019-03-13T06:20:43.446Z,99914.55
2019-03-13T06:23:14.811Z,99912.09
2019-03-13T06:25:46.192Z,99923.52
2019-03-13T06:28:17.531Z,99916.76
2019-03-13T06:30:48.815Z,99923.95
2019-03-13T06:33:20.201Z,99924.50
2019-03-13T06:35:51.783Z,99926.39
2019-03-13T06:38:23.163Z,99935.68
2019-03-13T06:40:54.474Z,99934.48
2019-03-13T06:43:26.019Z,99928.44
2019-03-13T06:45:57.365Z,99933.34
2019-03-13T06:48:28.615Z,99931.72
2019-03-13T06:50:59.882Z,99938.91
2019-03-13T06:53:31.207Z,99931.23
2019-03-13T06:56:02.903Z,99935.73
2019-03-13T06:58:43.671Z,99936.80
2019-03-13T07:01:46.059Z,99936.05
2019-03-13T07:04:26.363Z,99935.41
2019-03-13T07:07:22.882Z,99936.16
2019-03-13T07:10:12.942Z,99933.48
2019-03-13T07:13:01.205Z,99933.87
2019-03-13T07:15:46.167Z,99941.72
2019-03-13T07:18:35.765Z,99921.16
2019-03-13T07:21:26.245Z,99932.02
2019-03-13T07:24:20.229Z,99941.89
2019-03-13T07:27:08.050Z,99939.10
2019-03-13T07:29:50.740Z,99922.27
2019-03-13T07:32:43.980Z,99933.52
2019-03-13T07:35:40.384Z,99938.09
2019-03-13T07:38:29.387Z,99934.07
2019-03-13T07:41:19.666Z,99942.23
2019-03-13T07:44:09.933Z,99938.13
2019-03-13T07:47:15.519Z,99938.45
2019-03-13T07:50:11.911Z,99943.10
2019-03-13T07:53:01.757Z,99935.18
2019-03-13T07:55:54.813Z,99936.37
2019-03-13T07:58:44.274Z,99935.28
2019-03-13T08:01:33.497Z,99928.59
2019-03-13T08:04:23.816Z,99945.32
2019-03-13T08:07:18.864Z,99928.13
2019-03-13T08:10:00.774Z,99929.31
2019-03-13T08:12:53.916Z,99921.20
2019-03-13T08:15:42.099Z,99915.38
2019-03-13T08:18:20.087Z,99933.93
2019-03-13T08:21:28.792Z,99918.04
2019-03-13T08:24:25.170Z,99929.58
2019-03-13T08:27:13.982Z,99921.97
2019-03-13T08:30:13.502Z,99923.41
2019-03-13T08:33:02.703Z,99919.66
2019-03-13T08:35:44.937Z,99925.09
2019-03-13T08:38:24.177Z,99920.62
2019-03-13T08:41:21.369Z,99910.86
2019-03-13T08:44:20.686Z,99925.05
2019-03-13T08:47:29.164Z,99921.62
2019-03-13T08:50:08.571Z,99909.01
2019-03-13T08:52:54.733Z,99910.75
2019-03-13T08:55:47.718Z,99933.06
2019-03-13T08:58:38.019Z,99893.47
2019-03-13T09:01:26.959Z,99901.11
2019-03-13T09:04:17.249Z,99878.66
2019-03-13T09:06:56.865Z,99883.84
2019-03-13T09:09:35.181Z,99882.88
2019-03-13T09:12:27.594Z,99874.46
2019-03-13T09:15:21.216Z,99874.25
2019-03-13T09:18:12.309Z,99874.47
2019-03-13T09:21:05.280Z,99895.20
2019-03-13T09:23:54.400Z,99881.05
2019-03-13T09:26:47.673Z,99872.44
2019-03-13T09:29:53.049Z,99868.22
2019-03-13T09:32:41.693Z,99866.22
2019-03-13T09:35:22.008Z,99858.20
2019-03-13T09:38:16.189Z,99864.41
2019-03-13T09:41:01.577Z,99841.78
2019-03-13T09:43:55.174Z,99850.32
2019-03-13T09:47:00.921Z,99851.41
2019-03-13T09:49:56.866Z,99829.89
2019-03-13T09:52:45.740Z,99826.53
2019-03-13T09:55:36.056Z,99837.11
2019-03-13T09:58:38.601Z,99824.88
2019-03-13T10:01:25.409Z,99838.12
2019-03-13T10:04:17.257Z,99816.25
2019-03-13T10:07:13.471Z,99825.95
2019-03-13T10:09:59.727Z,99829.62
2019-03-13T10:12:43.972Z,99812.20
2019-03-13T10:15:25.490Z,99801.00
2019-03-13T10:18:15.823Z,99815.98
2019-03-13T10:21:05.175Z,99815.58
2019-03-13T10:23:48.043Z,99813.02
2019-03-13T10:26:28.752Z,99814.84
2019-03-13T10:29:20.264Z,99840.66
2019-03-13T10:32:01.147Z,99831.02
2019-03-13T10:34:54.518Z,99813.23
2019-03-13T10:37:44.817Z,99805.56
2019-03-13T10:40:53.393Z,99805.27
2019-03-13T10:43:49.576Z,99801.99
2019-03-13T10:46:38.539Z,99800.88
2019-03-13T10:49:34.615Z,99805.69
2019-03-13T10:52:11.242Z,99800.58
2019-03-13T10:55:10.692Z,99815.06
2019-03-13T10:58:07.172Z,99806.23
2019-03-13T11:01:09.706Z,99822.33
2019-03-13T11:03:58.709Z,99800.73
2019-03-13T11:06:54.962Z,99791.55
2019-03-13T11:09:47.183Z,99803.77
2019-03-13T11:12:40.201Z,99797.16
2019-03-13T11:15:17.516Z,99787.97
2019-03-13T11:18:03.112Z,99790.13
2019-03-13T11:20:52.515Z,99791.80
2019-03-13T11:23:39.931Z,99790.84
2019-03-13T11:26:24.464Z,99792.16
2019-03-13T11:29:08.853Z,99788.63
2019-03-13T11:32:04.795Z,99795.48
2019-03-13T11:34:56.922Z,99783.22
2019-03-13T11:37:37.839Z,99796.28
2019-03-13T11:40:32.037Z,99792.69
2019-03-13T11:43:25.520Z,99780.39
2019-03-13T11:46:19.095Z,99779.14
2019-03-13T11:49:21.553Z,99800.62
2019-03-13T11:52:18.000Z,99774.84
2019-03-13T11:55:08.310Z,99785.84
2019-03-13T11:58:16.903Z,99773.63
2019-03-13T12:01:09.384Z,99771.06
2019-03-13T12:03:55.722Z,99771.00
2019-03-13T12:06:58.326Z,99757.34
2019-03-13T12:09:44.859Z,99749.94
2019-03-13T12:12:45.945Z,99754.88
2019-03-13T12:15:35.137Z,99758.41
2019-03-13T12:18:25.513Z,99737.06
2019-03-13T12:21:17.546Z,99735.50
2019-03-13T12:24:22.866Z,99737.83
2019-03-13T12:27:13.016Z,99731.46
2019-03-13T12:30:03.253Z,99745.22
2019-03-13T12:32:46.753Z,99719.08
2019-03-13T12:35:35.394Z,99725.74
2019-03-13T12:38:23.987Z,99720.63
2019-03-13T12:41:19.120Z,99710.73
2019-03-13T12:44:09.123Z,99701.70
2019-03-13T12:46:54.640Z,99708.91
2019-03-13T12:49:39.771Z,99703.44
2019-03-13T12:52:30.085Z,99694.08
2019-03-13T12:55:20.992Z,99680.69
2019-03-13T12:58:12.162Z,99684.44
2019-03-13T13:01:00.142Z,99681.70
2019-03-13T13:03:47.527Z,99675.52
2019-03-13T13:06:36.723Z,99669.50
2019-03-13T13:09:29.885Z,99670.85
2019-03-13T13:12:12.268Z,99659.41
2019-03-13T13:15:08.598Z,99659.08
2019-03-13T13:17:58.838Z,99653.32
2019-03-13T13:20:30.356Z,99657.91
2019-03-13T13:23:01.732Z,99667.32
2019-03-13T13:25:33.264Z,99658.31
2019-03-13T13:28:04.851Z,99660.69
2019-03-13T13:30:36.373Z,99672.61
2019-03-13T13:33:07.692Z,99656.55
2019-03-13T13:35:38.990Z,99655.59
2019-03-13T13:38:10.576Z,99655.88
2019-03-13T13:40:41.886Z,99657.91
2019-03-13T13:43:13.172Z,99662.05
2019-03-13T13:46:00.611Z,99651.77
2019-03-13T13:48:31.874Z,99666.34
2019-03-13T13:51:03.261Z,99653.48
2019-03-13T13:53:34.658Z,99652.53
2019-03-13T13:56:05.922Z,99653.29
2019-03-13T13:58:37.155Z,99653.66
2019-03-13T14:01:08.519Z,99642.61
2019-03-13T14:03:39.802Z,99650.39
2019-03-13T14:06:11.357Z,99666.45
2019-03-13T14:08:42.643Z,99662.73
2019-03-13T14:11:14.027Z,99654.81
2019-03-13T14:13:45.478Z,99653.91
2019-03-13T14:16:16.870Z,99655.31
2019-03-13T14:18:48.360Z,99656.63
2019-03-13T14:21:19.615Z,99651.37
2019-03-13T14:23:50.894Z,99660.11
2019-03-13T14:26:22.127Z,99654.41
2019-03-13T14:28:53.377Z,99639.12
2019-03-13T14:31:24.883Z,99640.52
2019-03-13T14:33:56.209Z,99638.49
2019-03-13T14:36:27.427Z,99640.52
2019-03-13T14:38:58.677Z,99649.81
2019-03-13T14:41:29.922Z,99636.32
2019-03-13T14:44:01.184Z,99638.62
2019-03-13T14:46:32.820Z,99633.47
2019-03-13T14:49:04.384Z,99643.20
2019-03-13T14:51:35.676Z,99626.19
2019-03-13T14:54:06.946Z,99631.07
2019-03-13T14:56:38.281Z,99627.67
2019-03-13T14:59:09.696Z,99652.30
2019-03-13T15:01:40.940Z,99630.70
2019-03-13T15:04:12.314Z,99632.38
2019-03-13T15:06:43.612Z,99627.91
2019-03-13T15:09:19.041Z,99625.64
2019-03-13T15:11:53.063Z,99613.37
2019-03-13T15:14:24.593Z,99618.98
2019-03-13T15:16:55.844Z,99615.91
2019-03-13T15:19:27.172Z,99603.96
2019-03-13T15:21:58.416Z,99616.22
2019-03-13T15:24:31.147Z,99607.91
2019-03-13T15:27:02.556Z,99605.01
2019-03-13T15:29:33.829Z,99607.58
2019-03-13T15:32:05.045Z,99593.14
2019-03-13T15:34:36.322Z,99604.50
2019-03-13T15:37:07.580Z,99597.89
2019-03-13T15:39:38.807Z,99583.77
2019-03-13T15:42:10.208Z,99601.19
2019-03-13T15:44:41.508Z,99589.62
2019-03-13T15:47:12.830Z,99580.70
2019-03-13T15:49:44.123Z,99583.28
2019-03-13T15:52:15.403Z,99571.83
2019-03-13T15:54:46.677Z,99575.67
2019-03-13T15:57:18.550Z,99564.27
2019-03-13T15:59:50.038Z,99572.50
2019-03-13T16:02:21.443Z,99569.42
2019-03-13T16:04:52.684Z,99558.08
2019-03-13T16:07:24.152Z,99563.01
2019-03-13T16:09:55.406Z,99555.19
2019-03-13T16:12:26.671Z,99546.95
2019-03-13T16:14:58.086Z,99560.66
2019-03-13T16:17:29.326Z,99548.44
2019-03-13T16:20:00.649Z,99549.75
2019-03-13T16:22:32.094Z,99552.83
2019-03-13T16:25:03.417Z,99554.50
2019-03-13T16:27:34.794Z,99560.56
2019-03-13T16:30:08.550Z,99557.89
2019-03-13T16:32:44.167Z,99580.11
2019-03-13T16:35:12.836Z,99577.80
2019-03-13T16:37:44.194Z,99583.80
2019-03-13T16:40:16.280Z,99590.52
2019-03-13T16:42:47.591Z,99582.31
2019-03-13T16:45:18.869Z,99577.27
2019-03-13T16:47:50.124Z,99578.17
2019-03-13T16:50:21.701Z,99590.72
2019-03-13T16:52:53.186Z,99585.70
2019-03-13T16:55:24.704Z,99600.67
2019-03-13T16:57:57.846Z,99585.20
2019-03-13T17:00:29.077Z,99611.52
2019-03-13T17:03:00.539Z,99621.65
2019-03-13T17:05:31.816Z,99609.91
2019-03-13T17:08:03.092Z,99619.21
2019-03-13T17:10:34.421Z,99610.44
2019-03-13T17:13:06.041Z,99630.30
2019-03-13T17:15:37.311Z,99605.34
2019-03-13T17:18:08.646Z,99606.27
2019-03-13T17:20:40.317Z,99609.82
2019-03-13T17:23:11.578Z,99608.53
2019-03-13T17:25:43.068Z,99606.14
2019-03-13T17:28:14.344Z,99599.73
2019-03-13T17:30:51.775Z,99593.48
2019-03-13T17:33:32.947Z,99599.97
2019-03-13T17:36:07.151Z,99604.64
2019-03-13T17:38:39.410Z,99592.75
2019-03-13T17:41:10.621Z,99594.46
2019-03-13T17:43:42.922Z,99596.11
2019-03-13T17:46:14.439Z,99591.32
2019-03-13T17:48:46.258Z,99599.63
2019-03-13T17:51:18.347Z,99600.88
2019-03-13T17:53:50.700Z,99603.91
2019-03-13T17:56:22.150Z,99593.88
2019-03-13T17:58:53.377Z,99599.11
2019-03-13T18:01:25.807Z,99598.92
2019-03-13T18:03:57.243Z,99589.36
2019-03-13T18:06:28.555Z,99590.27
2019-03-13T18:08:59.772Z,99585.38
2019-03-13T18:11:32.042Z,99589.64
2019-03-13T18:14:04.544Z,99587.84
2019-03-13T18:16:36.440Z,99596.06
2019-03-13T18:19:08.850Z,99593.30
2019-03-13T18:21:40.361Z,99577.48
2019-03-13T18:24:11.683Z,99583.12
2019-03-13T18:26:43.307Z,99579.02
2019-03-13T18:29:14.667Z,99587.60
2019-03-13T18:31:46.263Z,99576.12
2019-03-13T18:34:23.724Z,99586.02
2019-03-13T18:36:57.969Z,99581.13
2019-03-13T18:39:29.247Z,99587.67
2019-03-13T18:42:00.597Z,99576.74
2019-03-13T18:44:32.071Z,99572.76
2019-03-13T18:47:03.526Z,99584.09
2019-03-13T18:49:34.976Z,99575.72
2019-03-13T18:52:06.514Z,99580.88
2019-03-13T18:54:38.477Z,99570.83
2019-03-13T18:57:09.727Z,99572.98
2019-03-13T18:59:42.421Z,99580.82
2019-03-13T19:02:14.723Z,99574.19
2019-03-13T19:04:46.114Z,99585.09
2019-03-13T19:07:18.644Z,99588.51
2019-03-13T19:09:50.056Z,99582.31
2019-03-13T19:12:21.479Z,99586.58
2019-03-13T19:14:52.769Z,99583.09
2019-03-13T19:17:24.031Z,99576.46
2019-03-13T19:19:55.473Z,99572.48
2019-03-13T19:22:26.859Z,99569.46
2019-03-13T19:24:58.201Z,99579.02
2019-03-13T19:27:29.483Z,99579.86
2019-03-13T19:30:00.752Z,99573.66
2019-03-13T19:32:32.233Z,99568.03
2019-03-13T19:35:03.686Z,99581.22
2019-03-13T19:37:35.183Z,99571.11
2019-03-13T19:40:09.278Z,99579.45
2019-03-13T19:42:40.806Z,99579.45
2019-03-13T19:45:16.013Z,99566.38
2019-03-13T19:47:47.413Z,99566.84
2019-03-13T19:50:18.677Z,99561.97
2019-03-13T19:52:50.004Z,99567.59
2019-03-13T19:55:21.173Z,99568.03
2019-03-13T19:57:52.511Z,99569.68
2019-03-13T20:00:24.820Z,99578.27
2019-03-13T20:03:00.378Z,99579.51
2019-03-13T20:05:29.341Z,99575.46
2019-03-13T20:08:00.625Z,99559.28
2019-03-13T20:10:35.479Z,99555.77
2019-03-13T20:13:06.797Z,99564.45
2019-03-13T20:15:38.260Z,99568.77
2019-03-13T20:18:09.483Z,99572.69
2019-03-13T20:20:42.077Z,99566.50
2019-03-13T20:23:14.430Z,99568.64
2019-03-13T20:25:45.874Z,99573.47
2019-03-13T20:28:17.237Z,99576.48
2019-03-13T20:30:48.660Z,99571.59
2019-03-13T20:33:21.453Z,99567.11
2019-03-13T20:35:55.562Z,99578.47
2019-03-13T20:38:26.894Z,99573.64
2019-03-13T20:40:59.258Z,99577.16
2019-03-13T20:43:33.513Z,99594.02
2019-03-13T20:46:15.263Z,99574.76
2019-03-13T20:48:48.926Z,99601.56
2019-03-13T20:51:20.392Z,99581.50
2019-03-13T20:53:51.837Z,99581.41
2019-03-13T20:56:23.374Z,99593.66
2019-03-13T20:58:54.666Z,99587.13
2019-03-13T21:01:26.096Z,99594.47
2019-03-13T21:03:57.591Z,99604.52
2019-03-13T21:06:28.874Z,99601.37
2019-03-13T21:09:03.871Z,99597.34
2019-03-13T21:11:36.752Z,99599.09
2019-03-13T21:14:10.546Z,99595.51
2019-03-13T21:16:42.218Z,99605.05
2019-03-13T21:19:13.579Z,99590.22
2019-03-13T21:21:45.941Z,99603.75
2019-03-13T21:24:17.467Z,99594.14
2019-03-13T21:26:49.511Z,99601.07
2019-03-13T21:29:21.878Z,99592.40
2019-03-13T21:31:53.519Z,99605.05
2019-03-13T21:34:27.256Z,99602.51
2019-03-13T21:36:58.037Z,99602.11
2019-03-13T21:39:29.399Z,99603.07
2019-03-13T21:42:00.734Z,99643.56
2019-03-13T21:44:32.163Z,99606.66
2019-03-13T21:47:03.406Z,99615.80
2019-03-13T21:49:36.283Z,99608.43
2019-03-13T21:52:11.689Z,99604.84
2019-03-13T21:54:46.309Z,99600.59
2019-03-13T21:57:17.506Z,99621.89
2019-03-13T21:59:49.003Z,99621.99
2019-03-13T22:02:31.849Z,99628.19
2019-03-13T22:04:53.303Z,99605.55
2019-03-13T22:07:24.686Z,99628.25
2019-03-13T22:09:58.534Z,99626.17
2019-03-13T22:12:29.272Z,99625.37
2019-03-13T22:15:00.582Z,99621.52
2019-03-13T22:17:32.123Z,99616.75
2019-03-13T22:20:03.469Z,99633.84
2019-03-13T22:22:35.987Z,99665.19
2019-03-13T22:25:07.390Z,99640.43
2019-03-13T22:27:38.942Z,99642.14
2019-03-13T22:30:16.204Z,99622.20
2019-03-13T22:32:47.531Z,99630.95
2019-03-13T22:35:20.162Z,99662.70
2019-03-13T22:37:51.555Z,99659.19
2019-03-13T22:40:24.996Z,99653.91
2019-03-13T22:42:56.341Z,99642.08
2019-03-13T22:45:27.729Z,99641.67
2019-03-13T22:47:59.212Z,99641.58
2019-03-13T22:50:30.480Z,99651.35
2019-03-13T22:53:01.762Z,99645.22
2019-03-13T22:55:33.019Z,99647.03
2019-03-13T22:58:04.317Z,99633.00
2019-03-13T23:00:57.074Z,99660.90
2019-03-13T23:03:31.087Z,99664.81
2019-03-13T23:06:02.363Z,99659.13
2019-03-13T23:08:33.708Z,99675.70
2019-03-13T23:11:05.089Z,99700.86
2019-03-13T23:13:36.613Z,99698.92
2019-03-13T23:16:07.876Z,99676.25
2019-03-13T23:18:39.215Z,99667.50
2019-03-13T23:21:10.549Z,99673.91
2019-03-13T23:23:41.806Z,99674.14
2019-03-13T23:26:13.183Z,99678.06
2019-03-13T23:28:44.529Z,99686.39
2019-03-13T23:31:16.860Z,99685.42
2019-03-13T23:33:48.100Z,99691.48
2019-03-13T23:36:19.665Z,99684.05
2019-03-13T23:38:50.872Z,99687.97
2019-03-13T23:41:22.211Z,99703.08
2019-03-13T23:43:53.665Z,99694.70
2019-03-13T23:46:24.951Z,99698.11
2019-03-13T23:48:56.196Z,99697.47
2019-03-13T23:51:27.427Z,99695.06
2019-03-13T23:53:58.747Z,99700.62
2019-03-13T23:56:30.011Z,99713.20
2019-03-13T23:59:01.266Z,99724.72
